Time;durP1;ratioP1;P1;durP2;ratioP2;P2;SDS_P1;SDS_P2;PMS_P1;PMS_P2;Temp;Humidity;BMP_temperature;BMP_pressure;BME280_temperature;BME280_humidity;BME280_pressure;Samples;Min_cycle;Max_cycle;Signal;HPM_P1;HPM_P2
2022/08/23 00:01:13;;;;;;;2.95;1.95;;;22.50;99.90;;;;;;4590709;19;20015;-35
2022/08/23 00:02:44;;;;;;;5.88;2.78;;;22.50;99.90;;;;;;4590818;19;20062;-36
2022/08/23 00:04:18;;;;;;;4.00;1.77;;;22.50;99.90;;;;;;4591507;19;20011;-39
2022/08/23 00:05:49;;;;;;;3.17;1.80;;;22.50;99.90;;;;;;4590841;19;20074;-35
2022/08/23 00:07:20;;;;;;;3.97;2.88;;;22.50;99.90;;;;;;4592202;19;20028;-35
2022/08/23 00:08:51;;;;;;;4.65;1.80;;;22.40;99.90;;;;;;4591661;19;20025;-35
2022/08/23 00:10:22;;;;;;;;;;;22.50;99.90;;;;;;4592936;19;20015;-35
2022/08/23 00:12:14;;;;;;;3.60;1.67;;;22.50;99.90;;;;;;4592347;19;19974;-35
2022/08/23 00:13:46;;;;;;;3.75;1.92;;;22.50;99.90;;;;;;4591427;19;20014;-35
2022/08/23 00:15:18;;;;;;;3.03;1.70;;;22.50;99.90;;;;;;4591409;19;20003;-35
2022/08/23 00:16:50;;;;;;;3.72;2.00;;;22.50;99.90;;;;;;4590359;19;20014;-37
2022/08/23 00:18:23;;;;;;;3.97;1.60;;;22.50;99.90;;;;;;4591601;19;20078;-35
2022/08/23 00:19:54;;;;;;;3.22;1.70;;;22.40;99.90;;;;;;4591825;19;20078;-35
2022/08/23 00:21:25;;;;;;;3.40;2.17;;;22.50;99.90;;;;;;4591412;19;20025;-37
2022/08/23 00:22:56;;;;;;;3.55;1.48;;;22.50;99.90;;;;;;4589096;19;20121;-38
2022/08/23 00:24:27;;;;;;;2.60;1.88;;;22.50;99.90;;;;;;4591102;19;20103;-38
2022/08/23 00:26:01;;;;;;;4.53;1.73;;;22.40;99.90;;;;;;4592392;19;20021;-39
2022/08/23 00:27:33;;;;;;;5.10;1.58;;;22.40;99.90;;;;;;4591360;19;20014;-35
2022/08/23 00:29:04;;;;;;;4.15;1.67;;;22.50;99.90;;;;;;4591607;19;20352;-35
2022/08/23 00:30:36;;;;;;;4.15;1.85;;;22.50;99.90;;;;;;4591823;19;20066;-35
2022/08/23 00:32:09;;;;;;;4.60;1.80;;;22.40;99.90;;;;;;4591597;19;20003;-35
2022/08/23 00:33:40;;;;;;;2.80;1.45;;;22.50;99.90;;;;;;4589951;19;20010;-39
2022/08/23 00:35:12;;;;;;;3.28;1.70;;;22.50;99.90;;;;;;4590037;19;20018;-38
2022/08/23 00:36:43;;;;;;;;;;;22.40;99.90;;;;;;4592426;19;20050;-35
2022/08/23 00:38:14;;;;;;;4.05;2.05;;;22.40;99.90;;;;;;4591198;19;19911;-36
2022/08/23 00:39:46;;;;;;;3.95;1.80;;;22.40;99.90;;;;;;4591397;19;20018;-38
2022/08/23 00:41:17;;;;;;;4.43;2.20;;;22.40;99.90;;;;;;4590362;19;20078;-35
2022/08/23 00:48:36;;;;;;;3.97;2.15;;;22.50;99.90;;;;;;4589832;19;20078;-35
2022/08/23 00:50:17;;;;;;;3.75;1.67;;;22.50;99.90;;;;;;4589938;19;20045;-35
2022/08/23 00:52:02;;;;;;;3.15;1.75;;;22.40;99.90;;;;;;4590394;19;20340;-34
2022/08/23 00:53:37;;;;;;;3.78;2.10;;;22.40;99.90;;;;;;4590397;19;19995;-35
2022/08/23 00:55:08;;;;;;;4.78;1.90;;;22.40;99.90;;;;;;4590435;19;20009;-35
2022/08/23 00:56:39;;;;;;;2.95;1.15;;;22.40;99.90;;;;;;4591005;19;20010;-35
2022/08/23 00:58:29;;;;;;;3.45;1.67;;;22.40;99.90;;;;;;4590134;19;20007;-35
2022/08/23 01:00:00;;;;;;;3.55;1.55;;;22.40;99.90;;;;;;4590934;19;20015;-36
2022/08/23 01:01:32;;;;;;;3.60;1.75;;;22.40;99.90;;;;;;4588587;19;20013;-38
2022/08/23 01:03:05;;;;;;;2.75;1.80;;;22.40;99.90;;;;;;4589119;19;20029;-37
2022/08/23 01:04:43;;;;;;;2.65;1.70;;;22.40;99.90;;;;;;4590243;19;20035;-35
2022/08/23 01:06:25;;;;;;;3.53;2.03;;;22.40;99.90;;;;;;4589703;19;20010;-38
2022/08/23 01:07:57;;;;;;;2.85;1.88;;;22.40;99.90;;;;;;4589408;19;20441;-35
2022/08/23 01:09:28;;;;;;;3.78;1.80;;;22.40;99.90;;;;;;4589539;19;20468;-37
2022/08/23 01:11:14;;;;;;;4.07;1.70;;;22.40;99.90;;;;;;4590378;19;20479;-37
2022/08/23 01:12:51;;;;;;;4.70;2.05;;;22.40;99.90;;;;;;4589470;19;20015;-34
2022/08/23 01:14:46;;;;;;;2.97;1.95;;;22.40;99.90;;;;;;4589281;19;20422;-35
2022/08/23 01:16:44;;;;;;;4.32;1.70;;;22.40;99.90;;;;;;4589736;19;20455;-35
2022/08/23 01:18:16;;;;;;;3.55;2.00;;;22.40;99.90;;;;;;4591004;19;20011;-35
2022/08/23 01:19:59;;;;;;;3.35;1.90;;;22.40;99.90;;;;;;4589144;19;20014;-35
2022/08/23 01:21:37;;;;;;;5.60;1.80;;;22.40;99.90;;;;;;4589409;19;20351;-35
2022/08/23 01:23:27;;;;;;;2.97;2.05;;;22.40;99.90;;;;;;4589061;19;20523;-35
2022/08/23 01:24:58;;;;;;;3.75;1.70;;;22.40;99.90;;;;;;4589838;19;20499;-36
2022/08/23 01:26:33;;;;;;;4.25;2.58;;;22.40;99.90;;;;;;4589647;19;20414;-35
2022/08/23 01:28:05;;;;;;;3.10;1.77;;;22.40;99.90;;;;;;4589436;19;20057;-35
2022/08/23 01:29:36;;;;;;;5.05;2.13;;;22.40;99.90;;;;;;4589872;19;20014;-35
2022/08/23 01:31:08;;;;;;;4.07;1.80;;;22.40;99.90;;;;;;4589433;19;20025;-35
2022/08/23 01:32:45;;;;;;;2.83;1.85;;;22.40;99.90;;;;;;4590264;19;20070;-35
2022/08/23 01:34:17;;;;;;;4.45;2.17;;;22.40;99.90;;;;;;4588989;19;20435;-36
2022/08/23 01:35:50;;;;;;;3.03;1.52;;;22.40;99.90;;;;;;4588739;19;20085;-35
2022/08/23 01:37:22;;;;;;;3.17;1.77;;;22.40;99.90;;;;;;4589289;19;20353;-35
2022/08/23 01:38:53;;;;;;;3.65;2.10;;;22.30;99.90;;;;;;4589359;19;19998;-35
2022/08/23 01:40:27;;;;;;;3.53;1.55;;;22.30;99.90;;;;;;4589733;19;20074;-34
2022/08/23 01:41:58;;;;;;;4.57;1.65;;;22.30;99.90;;;;;;4589292;19;20007;-35
2022/08/23 01:43:29;;;;;;;3.40;1.98;;;22.30;99.90;;;;;;4589688;19;20035;-35
2022/08/23 01:45:01;;;;;;;4.72;2.20;;;22.30;99.90;;;;;;4590284;19;20487;-37
2022/08/23 01:46:32;;;;;;;4.20;1.92;;;22.40;99.90;;;;;;4588934;19;20014;-38
2022/08/23 01:48:03;;;;;;;3.50;1.77;;;22.40;99.90;;;;;;4588838;19;20069;-32
2022/08/23 01:49:34;;;;;;;3.70;2.50;;;22.40;99.90;;;;;;4589486;19;20489;-34
2022/08/23 01:51:06;;;;;;;3.90;2.47;;;22.40;99.90;;;;;;4588870;19;20466;-35
2022/08/23 01:52:38;;;;;;;4.45;2.22;;;22.40;99.90;;;;;;4588767;19;20395;-37
2022/08/23 01:54:09;;;;;;;2.85;2.22;;;22.40;99.90;;;;;;4589540;19;20062;-35
2022/08/23 01:55:40;;;;;;;;;;;22.40;99.90;;;;;;4590617;19;20014;-35
2022/08/23 01:57:12;;;;;;;3.53;2.03;;;22.40;99.90;;;;;;4591347;19;19914;-35
2022/08/23 01:58:42;;;;;;;3.90;1.88;;;22.40;99.90;;;;;;4593467;19;20007;-36
2022/08/23 02:00:14;;;;;;;3.38;2.35;;;22.40;99.90;;;;;;4594446;19;20021;-35
2022/08/23 02:01:46;;;;;;;4.50;1.90;;;22.40;99.90;;;;;;4594695;19;20014;-35
2022/08/23 02:03:17;;;;;;;4.03;2.10;;;22.30;99.90;;;;;;4593275;19;20006;-35
2022/08/23 02:04:48;;;;;;;4.32;2.10;;;22.40;99.90;;;;;;4594353;19;20025;-36
2022/08/23 02:06:20;;;;;;;5.32;2.78;;;22.40;99.90;;;;;;4594321;19;20463;-38
2022/08/23 02:07:51;;;;;;;4.57;1.88;;;22.40;99.90;;;;;;4594493;19;20015;-39
2022/08/23 02:09:22;;;;;;;5.03;2.20;;;22.40;99.90;;;;;;4594265;19;20006;-39
2022/08/23 02:10:54;;;;;;;3.15;1.92;;;22.30;99.90;;;;;;4594862;19;20011;-35
2022/08/23 02:12:25;;;;;;;2.92;1.80;;;22.40;99.90;;;;;;4595198;19;20007;-34
2022/08/23 02:13:58;;;;;;;2.70;1.83;;;22.30;99.90;;;;;;4593923;19;20021;-37
2022/08/23 02:15:30;;;;;;;2.97;1.90;;;22.40;99.90;;;;;;4593638;19;20021;-36
2022/08/23 02:17:02;;;;;;;2.88;1.40;;;22.40;99.90;;;;;;4594592;19;20029;-37
2022/08/23 02:18:33;;;;;;;1.98;1.38;;;22.40;99.90;;;;;;4594378;19;20151;-38
2022/08/23 02:20:05;;;;;;;4.05;1.80;;;22.40;99.90;;;;;;4593857;19;20100;-38
2022/08/23 02:21:37;;;;;;;4.28;1.88;;;22.40;99.90;;;;;;4594064;19;20015;-35
2022/08/23 02:23:08;;;;;;;;;;;22.40;99.90;;;;;;4595580;19;20002;-36
2022/08/23 02:24:41;;;;;;;3.13;1.65;;;22.40;99.90;;;;;;4594896;19;19921;-40
2022/08/23 02:26:12;;;;;;;3.90;2.00;;;22.40;99.90;;;;;;4593961;19;20096;-37
2022/08/23 02:27:43;;;;;;;2.22;1.60;;;22.40;99.90;;;;;;4593868;19;20022;-35
2022/08/23 02:29:15;;;;;;;9.00;2.00;;;22.40;99.90;;;;;;4594013;19;20011;-34
2022/08/23 02:30:46;;;;;;;3.33;2.25;;;22.40;99.90;;;;;;4593136;19;20021;-35
2022/08/23 02:32:18;;;;;;;3.97;1.90;;;22.40;99.90;;;;;;4593523;19;20037;-36
2022/08/23 02:33:49;;;;;;;5.32;2.15;;;22.40;99.90;;;;;;4592472;19;20019;-35
2022/08/23 02:35:20;;;;;;;3.63;1.67;;;22.40;99.90;;;;;;4591714;19;20085;-35
2022/08/23 02:36:51;;;;;;;2.50;1.95;;;22.40;99.90;;;;;;4593225;19;20014;-35
2022/08/23 02:38:22;;;;;;;3.22;1.98;;;22.40;99.90;;;;;;4591350;19;20010;-35
2022/08/23 02:39:53;;;;;;;4.30;2.00;;;22.40;99.90;;;;;;4592088;19;20057;-35
2022/08/23 02:41:24;;;;;;;4.82;2.10;;;22.40;99.90;;;;;;4593535;19;20501;-38
2022/08/23 02:42:55;;;;;;;4.32;2.35;;;22.40;99.90;;;;;;4593613;19;20007;-39
2022/08/23 02:44:27;;;;;;;4.22;1.80;;;22.40;99.90;;;;;;4593720;19;20031;-38
2022/08/23 02:45:58;;;;;;;2.67;1.83;;;22.40;99.90;;;;;;4590545;19;20006;-35
2022/08/23 02:47:32;;;;;;;3.00;1.58;;;22.40;99.90;;;;;;4593158;19;20017;-35
2022/08/23 02:49:03;;;;;;;4.78;2.17;;;22.40;99.90;;;;;;4593272;19;20355;-35
2022/08/23 02:50:34;;;;;;;;;;;22.40;99.90;;;;;;4593224;19;20499;-36
2022/08/23 02:52:06;;;;;;;2.80;1.70;;;22.40;99.90;;;;;;4592491;19;19914;-37
2022/08/23 02:53:37;;;;;;;2.92;1.83;;;22.40;99.90;;;;;;4592846;19;20467;-34
2022/08/23 02:55:08;;;;;;;4.53;2.00;;;22.40;99.90;;;;;;4593107;19;20344;-35
2022/08/23 02:56:39;;;;;;;2.50;1.73;;;22.40;99.90;;;;;;4593229;19;20018;-36
2022/08/23 02:58:11;;;;;;;2.17;1.73;;;22.40;99.90;;;;;;4593912;19;20002;-36
2022/08/23 02:59:42;;;;;;;3.22;1.88;;;22.40;99.90;;;;;;4592073;19;20391;-34
2022/08/23 03:01:30;;;;;;;3.80;2.13;;;22.40;99.90;;;;;;4592664;19;20014;-35
2022/08/23 03:03:01;;;;;;;3.28;1.83;;;22.40;99.90;;;;;;4592601;19;20014;-39
2022/08/23 03:04:32;;;;;;;4.07;2.10;;;22.40;99.90;;;;;;4591812;19;20003;-36
2022/08/23 03:06:03;;;;;;;3.00;1.80;;;22.40;99.90;;;;;;4592801;19;20014;-35
2022/08/23 03:07:35;;;;;;;5.97;2.22;;;22.40;99.90;;;;;;4592219;19;20399;-37
2022/08/23 03:09:06;;;;;;;3.00;1.63;;;22.40;99.90;;;;;;4592257;19;20019;-36
2022/08/23 03:10:41;;;;;;;4.05;1.92;;;22.40;99.90;;;;;;4590861;19;20022;-35
2022/08/23 03:12:12;;;;;;;2.85;1.90;;;22.40;99.90;;;;;;4590640;19;20520;-35
2022/08/23 03:13:46;;;;;;;2.97;2.10;;;22.40;99.90;;;;;;4590541;19;20093;-36
2022/08/23 03:15:18;;;;;;;3.40;2.13;;;22.40;99.90;;;;;;4590315;19;20002;-35
2022/08/23 03:16:49;;;;;;;2.50;1.80;;;22.40;99.90;;;;;;4591191;19;20398;-35
2022/08/23 03:18:20;;;;;;;3.58;2.38;;;22.40;99.90;;;;;;4590739;19;20014;-35
2022/08/23 03:19:51;;;;;;;3.50;1.90;;;22.40;99.90;;;;;;4590804;19;20017;-35
2022/08/23 03:21:22;;;;;;;;;;;22.40;99.90;;;;;;4591800;19;20040;-38
2022/08/23 03:22:53;;;;;;;3.67;2.70;;;22.40;99.90;;;;;;4588269;19;19927;-34
2022/08/23 03:24:24;;;;;;;3.35;2.08;;;22.40;99.90;;;;;;4586844;19;20767;-39
2022/08/23 03:25:56;;;;;;;5.75;2.30;;;22.50;99.90;;;;;;4587727;19;20019;-36
2022/08/23 03:27:30;;;;;;;3.83;1.98;;;22.40;99.90;;;;;;4588221;19;20070;-38
2022/08/23 03:29:01;;;;;;;4.32;2.30;;;22.40;99.90;;;;;;4587988;19;20476;-36
2022/08/23 03:30:33;;;;;;;5.20;2.20;;;22.40;99.90;;;;;;4587884;19;20014;-35
2022/08/23 03:32:04;;;;;;;;;;;22.40;99.90;;;;;;4589533;19;20018;-35
2022/08/23 03:33:35;;;;;;;5.07;2.40;;;22.40;99.90;;;;;;4589291;19;19918;-35
2022/08/23 03:35:07;;;;;;;4.78;2.33;;;22.40;99.90;;;;;;4588303;19;20025;-35
2022/08/23 03:36:38;;;;;;;5.55;2.60;;;22.40;99.90;;;;;;4588675;19;20126;-35
2022/08/23 03:38:09;;;;;;;3.47;2.03;;;22.40;99.90;;;;;;4589430;19;20034;-35
2022/08/23 03:39:40;;;;;;;5.78;2.33;;;22.40;99.90;;;;;;4590280;19;20031;-35
2022/08/23 03:41:11;;;;;;;4.95;2.35;;;22.40;99.90;;;;;;4590349;19;20491;-37
2022/08/23 03:43:01;;;;;;;4.50;2.30;;;22.40;99.90;;;;;;4592010;19;20014;-35
2022/08/23 03:44:32;;;;;;;3.50;2.15;;;22.40;99.90;;;;;;4592692;19;20015;-35
2022/08/23 03:46:04;;;;;;;4.65;2.50;;;22.40;99.90;;;;;;4591507;19;20459;-34
2022/08/23 03:47:35;;;;;;;4.90;2.38;;;22.40;99.90;;;;;;4592206;19;20047;-35
2022/08/23 03:49:06;;;;;;;3.90;2.40;;;22.40;99.90;;;;;;4592161;19;20015;-35
2022/08/23 03:50:38;;;;;;;4.50;1.88;;;22.40;99.90;;;;;;4592618;19;20012;-35
2022/08/23 03:52:10;;;;;;;4.28;2.30;;;22.40;99.90;;;;;;4592969;19;20010;-34
2022/08/23 03:53:41;;;;;;;3.50;1.92;;;22.40;99.90;;;;;;4590909;19;20007;-35
2022/08/23 03:55:13;;;;;;;3.60;2.10;;;22.40;99.90;;;;;;4591238;19;20376;-37
2022/08/23 03:56:59;;;;;;;4.30;2.08;;;22.50;99.90;;;;;;4592596;19;20006;-37
2022/08/23 03:58:31;;;;;;;2.88;2.10;;;22.60;99.90;;;;;;4589863;19;20011;-38
2022/08/23 04:00:02;;;;;;;4.82;2.00;;;22.70;99.90;;;;;;4590315;19;20017;-35
2022/08/23 04:01:35;;;;;;;5.00;2.25;;;22.80;99.90;;;;;;4589218;19;20485;-35
2022/08/23 04:03:06;;;;;;;3.17;2.20;;;22.80;99.90;;;;;;4589641;19;20010;-35
2022/08/23 04:04:37;;;;;;;4.07;2.28;;;22.90;99.90;;;;;;4590101;19;20005;-37
2022/08/23 04:06:09;;;;;;;3.92;2.45;;;22.90;99.90;;;;;;4589715;19;20007;-35
2022/08/23 04:07:40;;;;;;;4.47;2.20;;;22.90;99.90;;;;;;4589634;19;20007;-35
2022/08/23 04:09:12;;;;;;;3.75;2.60;;;23.00;99.90;;;;;;4589317;19;20049;-35
2022/08/23 04:10:44;;;;;;;4.72;2.50;;;22.90;99.90;;;;;;4589340;19;20047;-39
2022/08/23 04:12:15;;;;;;;4.68;2.30;;;23.00;99.90;;;;;;4589174;19;20007;-36
2022/08/23 04:13:46;;;;;;;4.13;2.40;;;23.00;99.90;;;;;;4589496;19;20086;-34
2022/08/23 04:15:18;;;;;;;3.33;1.90;;;22.90;99.90;;;;;;4589533;19;20003;-35
2022/08/23 04:16:49;;;;;;;3.63;1.77;;;22.90;99.90;;;;;;4589312;19;20341;-35
2022/08/23 04:18:20;;;;;;;3.75;2.33;;;22.90;99.90;;;;;;4589500;19;20500;-35
2022/08/23 04:19:51;;;;;;;4.32;2.30;;;23.00;99.90;;;;;;4586788;19;19999;-35
2022/08/23 04:21:22;;;;;;;4.53;2.38;;;23.00;99.90;;;;;;4589562;19;19999;-35
2022/08/23 04:22:54;;;;;;;2.97;1.80;;;23.00;99.90;;;;;;4589065;19;20488;-35
2022/08/23 04:24:25;;;;;;;4.15;2.05;;;23.00;99.90;;;;;;4588991;19;20423;-34
2022/08/23 04:25:57;;;;;;;3.70;2.38;;;23.00;99.90;;;;;;4589141;19;20027;-34
2022/08/23 04:27:28;;;;;;;4.07;2.55;;;23.00;99.90;;;;;;4589278;19;20002;-34
2022/08/23 04:28:59;;;;;;;3.83;2.22;;;23.00;99.90;;;;;;4589334;19;20536;-39
2022/08/23 04:30:31;;;;;;;4.40;3.00;;;23.00;99.90;;;;;;4589140;19;20010;-39
2022/08/23 04:32:03;;;;;;;4.20;2.10;;;22.90;99.90;;;;;;4589617;19;20494;-36
2022/08/23 04:33:34;;;;;;;3.55;1.98;;;23.00;99.90;;;;;;4589027;19;20048;-37
2022/08/23 04:35:06;;;;;;;3.97;2.03;;;23.00;99.90;;;;;;4588147;19;20074;-36
2022/08/23 04:36:40;;;;;;;3.17;2.05;;;22.90;99.90;;;;;;4589329;19;20021;-34
2022/08/23 04:38:11;;;;;;;3.25;2.38;;;22.90;99.90;;;;;;4588974;19;20011;-35
2022/08/23 04:43:22;;;;;;;3.88;1.90;;;23.00;99.90;;;;;;4590067;19;20361;-35
2022/08/23 04:44:53;;;;;;;3.45;1.92;;;23.00;99.90;;;;;;4591021;19;20061;-35
2022/08/23 04:46:24;;;;;;;3.50;2.00;;;23.00;99.90;;;;;;4589859;19;20018;-38
2022/08/23 04:47:55;;;;;;;4.07;2.20;;;23.00;99.90;;;;;;4590811;19;20047;-37
2022/08/23 04:49:26;;;;;;;3.35;1.80;;;23.00;99.90;;;;;;4591230;19;20023;-35
2022/08/23 04:50:58;;;;;;;4.30;2.10;;;22.90;99.90;;;;;;4591096;19;20484;-37
2022/08/23 04:52:29;;;;;;;5.43;2.00;;;23.00;99.90;;;;;;4589291;19;20048;-35
2022/08/23 04:54:00;;;;;;;;;;;22.90;99.90;;;;;;4591393;19;20018;-35
2022/08/23 04:55:31;;;;;;;5.10;2.03;;;22.90;99.90;;;;;;4590565;19;19911;-34
2022/08/23 04:57:03;;;;;;;3.10;1.83;;;23.00;99.90;;;;;;4590609;19;20013;-35
2022/08/23 04:58:34;;;;;;;7.63;2.08;;;23.00;99.90;;;;;;4590242;19;20030;-35
2022/08/23 05:00:06;;;;;;;3.80;2.30;;;22.90;99.90;;;;;;4588986;19;20404;-35
2022/08/23 05:01:38;;;;;;;3.05;1.90;;;22.90;99.90;;;;;;4590498;19;20093;-38
2022/08/23 05:03:09;;;;;;;5.68;2.58;;;22.90;99.90;;;;;;4590586;19;20019;-35
2022/08/23 05:04:40;;;;;;;4.47;2.20;;;22.90;99.90;;;;;;4590750;19;20019;-38
2022/08/23 05:06:12;;;;;;;3.13;2.30;;;22.90;99.90;;;;;;4589004;19;20476;-38
2022/08/23 05:07:44;;;;;;;6.07;2.13;;;22.90;99.90;;;;;;4591869;19;20017;-37
2022/08/23 05:09:15;;;;;;;4.57;2.30;;;22.90;99.90;;;;;;4590034;19;20095;-35
2022/08/23 05:10:46;;;;;;;3.88;2.50;;;22.80;99.90;;;;;;4589510;19;20086;-37
2022/08/23 05:12:17;;;;;;;;;;;22.80;99.90;;;;;;4590429;19;20033;-37
2022/08/23 05:13:48;;;;;;;5.13;2.97;;;22.80;99.90;;;;;;4590067;19;19923;-35
2022/08/23 05:15:19;;;;;;;4.28;2.22;;;22.80;99.90;;;;;;4588237;19;20411;-37
2022/08/23 05:16:50;;;;;;;7.22;2.60;;;22.80;99.90;;;;;;4589114;19;20011;-39
2022/08/23 05:18:22;;;;;;;3.97;2.33;;;22.80;99.90;;;;;;4588913;19;20022;-39
2022/08/23 05:19:53;;;;;;;4.50;1.95;;;22.80;99.90;;;;;;4588553;19;20014;-35
2022/08/23 05:21:25;;;;;;;4.47;2.00;;;22.80;99.90;;;;;;4588643;19;20018;-35
2022/08/23 05:22:56;;;;;;;3.80;2.42;;;22.80;99.90;;;;;;4590104;19;20014;-35
2022/08/23 05:24:27;;;;;;;3.47;2.08;;;22.80;99.90;;;;;;4589622;19;20018;-36
2022/08/23 05:25:58;;;;;;;2.80;2.20;;;22.80;99.90;;;;;;4590519;19;20014;-35
2022/08/23 05:27:29;;;;;;;3.10;2.17;;;22.80;99.90;;;;;;4589763;19;20344;-37
2022/08/23 05:29:00;;;;;;;5.03;2.47;;;22.80;99.90;;;;;;4589743;19;20010;-36
2022/08/23 05:30:32;;;;;;;4.25;2.20;;;22.80;99.90;;;;;;4588939;19;20018;-38
2022/08/23 05:32:03;;;;;;;4.10;1.90;;;22.80;99.90;;;;;;4589273;19;20014;-44
2022/08/23 05:33:34;;;;;;;3.60;2.17;;;22.80;99.90;;;;;;4587333;19;20065;-35
2022/08/23 05:35:06;;;;;;;3.30;2.20;;;22.80;99.90;;;;;;4586739;19;20372;-35
2022/08/23 05:36:37;;;;;;;5.13;2.40;;;22.80;99.90;;;;;;4591082;19;20025;-35
2022/08/23 05:38:08;;;;;;;5.72;2.33;;;22.80;99.90;;;;;;4589408;19;20006;-35
2022/08/23 05:39:39;;;;;;;3.67;2.10;;;22.80;99.90;;;;;;4589963;19;20017;-35
2022/08/23 05:41:11;;;;;;;5.55;2.20;;;22.80;99.90;;;;;;4588627;19;20010;-35
2022/08/23 05:42:42;;;;;;;3.88;2.40;;;22.80;99.90;;;;;;4589377;19;20494;-34
2022/08/23 05:44:13;;;;;;;7.28;2.85;;;22.80;99.90;;;;;;4589268;19;20073;-37
2022/08/23 05:45:44;;;;;;;6.70;2.70;;;22.80;99.90;;;;;;4585248;19;20110;-37
2022/08/23 05:47:16;;;;;;;4.30;2.20;;;22.80;99.90;;;;;;4587963;19;20339;-35
2022/08/23 05:48:49;;;;;;;5.97;2.50;;;22.90;99.90;;;;;;4588409;19;20010;-37
2022/08/23 05:50:21;;;;;;;5.68;3.17;;;22.80;99.90;;;;;;4586998;19;20092;-36
2022/08/23 05:51:52;;;;;;;5.05;2.97;;;22.90;99.90;;;;;;4590313;19;20029;-35
2022/08/23 05:53:23;;;;;;;5.93;3.13;;;22.80;99.90;;;;;;4590060;19;20436;-35
2022/08/23 05:54:54;;;;;;;;;;;22.80;99.90;;;;;;4590618;19;20022;-36
2022/08/23 05:56:37;;;;;;;6.50;2.85;;;22.90;99.90;;;;;;4586735;19;19954;-36
2022/08/23 05:58:08;;;;;;;4.68;2.72;;;23.00;99.90;;;;;;4587936;19;20010;-35
2022/08/23 05:59:40;;;;;;;4.25;2.83;;;22.90;99.90;;;;;;4590696;19;20025;-37
2022/08/23 06:01:12;;;;;;;5.75;3.03;;;23.00;99.90;;;;;;4588868;19;20042;-34
2022/08/23 06:02:43;;;;;;;5.47;2.80;;;23.10;99.90;;;;;;4588551;19;20011;-35
2022/08/23 06:04:14;;;;;;;;;;;23.10;99.90;;;;;;4588999;19;20018;-36
2022/08/23 06:05:46;;;;;;;5.13;2.80;;;23.10;99.90;;;;;;4587929;19;20275;-33
2022/08/23 06:07:17;;;;;;;;;;;23.20;99.90;;;;;;4588995;19;20387;-34
2022/08/23 06:08:48;;;;;;;5.37;3.00;;;23.20;99.90;;;;;;4588443;19;20507;-36
2022/08/23 06:10:20;;;;;;;7.43;2.80;;;23.20;99.90;;;;;;4588023;19;20015;-35
2022/08/23 06:11:51;;;;;;;6.10;3.30;;;23.20;99.90;;;;;;4587974;19;20364;-38
2022/08/23 06:13:23;;;;;;;5.68;2.83;;;23.20;99.90;;;;;;4588969;19;20010;-38
2022/08/23 06:14:54;;;;;;;7.00;2.80;;;23.20;99.90;;;;;;4589571;19;20015;-41
2022/08/23 06:16:30;;;;;;;5.47;2.80;;;23.20;99.90;;;;;;4589067;19;20002;-36
2022/08/23 06:18:01;;;;;;;4.15;2.88;;;23.10;99.90;;;;;;4589432;19;20019;-38
2022/08/23 06:19:33;;;;;;;;;;;23.20;99.90;;;;;;4590142;19;20019;-46
2022/08/23 06:21:09;;;;;;;5.80;2.90;;;23.20;99.90;;;;;;4589667;19;19910;-41
2022/08/23 06:22:40;;;;;;;4.95;3.30;;;23.10;99.90;;;;;;4590007;19;19998;-44
2022/08/23 06:24:11;;;;;;;;;;;23.10;99.90;;;;;;4589430;19;20002;-41
2022/08/23 06:25:43;;;;;;;5.32;2.92;;;23.10;99.90;;;;;;4588578;19;19978;-42
2022/08/23 06:27:14;;;;;;;5.10;3.30;;;23.10;99.90;;;;;;4587969;19;20014;-43
2022/08/23 06:28:47;;;;;;;6.95;3.00;;;23.00;99.90;;;;;;4588944;19;20028;-44
2022/08/23 06:30:18;;;;;;;4.10;3.33;;;23.00;99.90;;;;;;4589563;19;20007;-44
2022/08/23 06:31:50;;;;;;;5.80;3.38;;;23.00;99.90;;;;;;4589482;19;20018;-39
2022/08/23 06:33:22;;;;;;;5.70;3.30;;;22.90;99.90;;;;;;4588246;19;20014;-42
2022/08/23 06:34:53;;;;;;;7.05;3.58;;;22.90;99.90;;;;;;4588947;19;20074;-43
2022/08/23 06:36:24;;;;;;;5.35;3.38;;;22.90;99.90;;;;;;4587815;19;20119;-43
2022/08/23 06:37:55;;;;;;;5.72;3.45;;;22.90;99.90;;;;;;4589175;19;20014;-44
2022/08/23 06:39:28;;;;;;;4.22;3.45;;;22.90;99.90;;;;;;4589513;19;20017;-41
2022/08/23 06:41:01;;;;;;;7.40;3.70;;;23.00;99.90;;;;;;4588995;19;20015;-37
2022/08/23 06:42:32;;;;;;;6.30;4.03;;;23.00;99.90;;;;;;4589562;19;20021;-41
2022/08/23 06:44:03;;;;;;;5.38;4.00;;;23.00;99.90;;;;;;4593962;19;20467;-41
2022/08/23 06:45:34;;;;;;;6.40;4.40;;;23.00;99.90;;;;;;4592521;19;20067;-42
2022/08/23 06:47:06;;;;;;;5.90;3.28;;;22.90;99.90;;;;;;4593663;19;20490;-44
2022/08/23 06:48:37;;;;;;;;;;;23.00;99.90;;;;;;4594315;19;20011;-36
2022/08/23 06:50:09;;;;;;;6.32;4.57;;;23.00;99.90;;;;;;4592183;19;19972;-45
2022/08/23 06:51:44;;;;;;;5.10;3.90;;;23.00;99.90;;;;;;4593089;19;20316;-42
2022/08/23 06:53:15;;;;;;;6.50;3.72;;;22.90;99.90;;;;;;4593318;19;20010;-44
2022/08/23 06:54:46;;;;;;;7.13;4.72;;;23.00;99.90;;;;;;4593248;19;20018;-44
2022/08/23 06:56:17;;;;;;;6.60;3.95;;;23.00;99.90;;;;;;4592435;19;20007;-41
2022/08/23 06:57:48;;;;;;;4.85;3.83;;;23.00;99.90;;;;;;4594104;19;20025;-39
2022/08/23 06:59:19;;;;;;;7.63;4.70;;;22.90;99.90;;;;;;4592215;19;20031;-45
2022/08/23 07:00:51;;;;;;;8.73;4.68;;;23.00;99.90;;;;;;4593041;19;20022;-45
2022/08/23 07:02:22;;;;;;;8.13;3.95;;;23.00;99.90;;;;;;4593474;19;20018;-42
2022/08/23 07:03:54;;;;;;;7.35;4.07;;;23.00;99.90;;;;;;4593804;19;20011;-42
2022/08/23 07:05:25;;;;;;;5.90;4.50;;;23.00;99.90;;;;;;4592000;19;20015;-45
2022/08/23 07:06:56;;;;;;;8.57;6.00;;;23.00;99.90;;;;;;4591897;19;20010;-39
2022/08/23 07:08:28;;;;;;;6.50;4.45;;;23.10;99.90;;;;;;4592668;19;20348;-42
2022/08/23 07:09:59;;;;;;;4.88;4.35;;;23.00;99.90;;;;;;4593211;19;20014;-44
2022/08/23 07:11:31;;;;;;;6.63;5.40;;;23.10;99.90;;;;;;4593200;19;20031;-42
2022/08/23 07:13:02;;;;;;;7.32;5.10;;;23.10;99.90;;;;;;4593079;19;20045;-38
2022/08/23 07:14:34;;;;;;;;;;;23.10;99.90;;;;;;4592374;19;20033;-43
2022/08/23 07:16:05;;;;;;;7.03;5.32;;;23.10;99.90;;;;;;4590807;19;19917;-44
2022/08/23 07:17:36;;;;;;;;;;;23.00;99.90;;;;;;4593009;19;20010;-40
2022/08/23 07:19:07;;;;;;;7.68;5.35;;;23.10;99.90;;;;;;4593173;19;19910;-44
2022/08/23 07:20:39;;;;;;;9.82;5.15;;;23.00;99.90;;;;;;4592556;19;20456;-39
2022/08/23 07:22:10;;;;;;;5.22;4.50;;;23.10;99.90;;;;;;4591767;19;20510;-41
2022/08/23 07:23:42;;;;;;;5.88;4.55;;;23.10;99.90;;;;;;4591530;19;20014;-42
2022/08/23 07:25:14;;;;;;;9.05;6.38;;;23.00;99.90;;;;;;4592072;19;20054;-40
2022/08/23 07:26:46;;;;;;;8.32;6.03;;;23.00;99.90;;;;;;4593603;19;20015;-37
2022/08/23 07:28:17;;;;;;;7.88;6.15;;;23.00;99.90;;;;;;4592611;19;20043;-46
2022/08/23 07:29:49;;;;;;;9.40;5.57;;;23.00;99.90;;;;;;4592476;19;20041;-44
2022/08/23 07:31:31;;;;;;;8.57;6.15;;;23.00;99.90;;;;;;4593153;19;20018;-43
2022/08/23 07:33:02;;;;;;;5.65;4.65;;;23.00;99.90;;;;;;4593550;19;20463;-37
2022/08/23 07:34:34;;;;;;;7.20;5.85;;;23.00;99.90;;;;;;4591243;19;20472;-40
2022/08/23 07:36:06;;;;;;;8.25;6.07;;;23.00;99.90;;;;;;4589799;19;20097;-45
2022/08/23 07:37:38;;;;;;;10.98;6.30;;;23.00;99.90;;;;;;4591544;19;20440;-45
2022/08/23 07:39:10;;;;;;;7.43;6.00;;;23.00;99.90;;;;;;4592363;19;20032;-44
2022/08/23 07:40:41;;;;;;;7.40;6.35;;;23.00;99.90;;;;;;4592597;19;20014;-43
2022/08/23 07:42:12;;;;;;;10.18;6.32;;;23.00;99.90;;;;;;4592438;19;20015;-41
2022/08/23 07:43:44;;;;;;;7.60;6.00;;;23.00;99.90;;;;;;4590306;19;20018;-45
2022/08/23 07:45:16;;;;;;;8.60;6.22;;;23.00;99.90;;;;;;4590796;19;20487;-38
2022/08/23 07:46:48;;;;;;;11.27;7.82;;;22.80;99.90;;;;;;4589706;19;20107;-40
2022/08/23 07:48:19;;;;;;;10.95;8.27;;;22.50;99.90;;;;;;4591784;19;20013;-41
2022/08/23 07:49:50;;;;;;;15.32;9.57;;;22.20;99.90;;;;;;4593015;19;20007;-44
2022/08/23 07:51:22;;;;;;;11.60;8.30;;;22.00;99.90;;;;;;4591787;19;20472;-41
2022/08/23 07:52:53;;;;;;;12.77;9.43;;;21.90;99.90;;;;;;4592054;19;20066;-41
2022/08/23 07:54:24;;;;;;;10.15;8.55;;;21.80;99.90;;;;;;4592868;19;20014;-41
2022/08/23 07:55:55;;;;;;;12.43;9.45;;;21.70;99.90;;;;;;4590168;19;20347;-35
2022/08/23 07:57:27;;;;;;;10.55;8.70;;;21.70;99.90;;;;;;4591044;19;20025;-42
2022/08/23 07:59:00;;;;;;;11.52;9.40;;;21.60;99.90;;;;;;4591272;19;20467;-41
2022/08/23 08:00:31;;;;;;;13.05;10.18;;;21.60;99.90;;;;;;4590241;19;20078;-44
2022/08/23 08:02:02;;;;;;;13.82;9.60;;;21.60;99.90;;;;;;4592731;19;20014;-42
2022/08/23 08:03:34;;;;;;;12.60;9.93;;;21.50;99.90;;;;;;4590649;19;20588;-40
2022/08/23 08:05:05;;;;;;;12.32;10.65;;;21.50;99.90;;;;;;4588165;19;20077;-40
2022/08/23 08:06:41;;;;;;;11.23;10.02;;;21.50;99.90;;;;;;4589520;19;20491;-35
2022/08/23 08:08:12;;;;;;;16.67;10.73;;;21.50;99.90;;;;;;4590635;19;20017;-44
2022/08/23 08:09:44;;;;;;;13.30;9.73;;;21.50;99.90;;;;;;4591267;19;20032;-43
2022/08/23 08:11:17;;;;;;;14.00;11.70;;;21.50;99.90;;;;;;4590376;19;20015;-45
2022/08/23 08:12:48;;;;;;;12.93;10.45;;;21.40;99.90;;;;;;4591057;19;20007;-40